sensor_id;sensor_type;location;lat;lon;timestamp;P1;durP1;ratioP1;P2;durP2;ratioP2
84054;SDS011;74141;51.504;7.122;2024-03-02T00:02:01;3.73;;;2.50;;
84054;SDS011;74141;51.504;7.122;2024-03-02T00:04:26;4.53;;;2.80;;
84054;SDS011;74141;51.504;7.122;2024-03-02T00:06:52;5.57;;;2.92;;
84054;SDS011;74141;51.504;7.122;2024-03-02T00:09:19;3.90;;;2.90;;
84054;SDS011;74141;51.504;7.122;2024-03-02T00:11:45;3.75;;;2.40;;
84054;SDS011;74141;51.504;7.122;2024-03-02T00:14:10;3.03;;;2.03;;
84054;SDS011;74141;51.504;7.122;2024-03-02T00:16:36;3.08;;;2.20;;
84054;SDS011;74141;51.504;7.122;2024-03-02T00:19:02;4.03;;;2.30;;
84054;SDS011;74141;51.504;7.122;2024-03-02T00:21:29;2.92;;;1.98;;
84054;SDS011;74141;51.504;7.122;2024-03-02T00:23:55;3.85;;;2.38;;
84054;SDS011;74141;51.504;7.122;2024-03-02T00:26:20;3.88;;;2.92;;
84054;SDS011;74141;51.504;7.122;2024-03-02T00:28:45;3.67;;;2.40;;
84054;SDS011;74141;51.504;7.122;2024-03-02T00:31:11;3.85;;;2.10;;
84054;SDS011;74141;51.504;7.122;2024-03-02T00:36:16;3.25;;;2.05;;
84054;SDS011;74141;51.504;7.122;2024-03-02T00:38:51;3.60;;;2.35;;
84054;SDS011;74141;51.504;7.122;2024-03-02T00:41:32;6.28;;;2.25;;
84054;SDS011;74141;51.504;7.122;2024-03-02T00:44:01;3.83;;;2.42;;
84054;SDS011;74141;51.504;7.122;2024-03-02T00:46:41;3.30;;;2.22;;
84054;SDS011;74141;51.504;7.122;2024-03-02T00:49:12;4.25;;;2.17;;
84054;SDS011;74141;51.504;7.122;2024-03-02T00:51:46;3.95;;;1.88;;
84054;SDS011;74141;51.504;7.122;2024-03-02T00:54:14;3.95;;;2.28;;
84054;SDS011;74141;51.504;7.122;2024-03-02T00:56:41;3.47;;;2.20;;
84054;SDS011;74141;51.504;7.122;2024-03-02T00:59:07;2.42;;;2.00;;
84054;SDS011;74141;51.504;7.122;2024-03-02T01:01:33;2.80;;;1.95;;
84054;SDS011;74141;51.504;7.122;2024-03-02T01:03:58;3.33;;;1.95;;
84054;SDS011;74141;51.504;7.122;2024-03-02T01:06:24;4.33;;;1.83;;
84054;SDS011;74141;51.504;7.122;2024-03-02T01:08:49;2.97;;;2.10;;
84054;SDS011;74141;51.504;7.122;2024-03-02T01:11:16;5.30;;;2.15;;
84054;SDS011;74141;51.504;7.122;2024-03-02T01:13:41;2.00;;;1.60;;
84054;SDS011;74141;51.504;7.122;2024-03-02T01:16:07;3.03;;;2.30;;
84054;SDS011;74141;51.504;7.122;2024-03-02T01:18:32;2.38;;;1.67;;
84054;SDS011;74141;51.504;7.122;2024-03-02T01:20:57;3.20;;;1.80;;
84054;SDS011;74141;51.504;7.122;2024-03-02T01:23:23;8.70;;;2.13;;
84054;SDS011;74141;51.504;7.122;2024-03-02T01:25:49;3.63;;;2.03;;
84054;SDS011;74141;51.504;7.122;2024-03-02T01:28:15;2.47;;;1.73;;
84054;SDS011;74141;51.504;7.122;2024-03-02T01:30:41;2.88;;;1.70;;
84054;SDS011;74141;51.504;7.122;2024-03-02T01:33:06;3.15;;;2.20;;
84054;SDS011;74141;51.504;7.122;2024-03-02T01:35:32;2.83;;;1.70;;
84054;SDS011;74141;51.504;7.122;2024-03-02T01:37:58;2.75;;;1.60;;
84054;SDS011;74141;51.504;7.122;2024-03-02T01:40:23;2.90;;;1.70;;
84054;SDS011;74141;51.504;7.122;2024-03-02T01:42:51;2.20;;;1.63;;
84054;SDS011;74141;51.504;7.122;2024-03-02T01:45:17;2.25;;;1.48;;
84054;SDS011;74141;51.504;7.122;2024-03-02T01:47:42;2.92;;;1.60;;
84054;SDS011;74141;51.504;7.122;2024-03-02T01:50:07;2.67;;;1.77;;
84054;SDS011;74141;51.504;7.122;2024-03-02T01:52:36;3.78;;;1.75;;
84054;SDS011;74141;51.504;7.122;2024-03-02T01:55:01;3.77;;;2.00;;
84054;SDS011;74141;51.504;7.122;2024-03-02T01:57:26;1.88;;;1.30;;
84054;SDS011;74141;51.504;7.122;2024-03-02T01:59:52;2.95;;;1.63;;
84054;SDS011;74141;51.504;7.122;2024-03-02T02:02:17;2.63;;;1.77;;
84054;SDS011;74141;51.504;7.122;2024-03-02T02:04:43;2.75;;;1.85;;
84054;SDS011;74141;51.504;7.122;2024-03-02T02:07:11;4.30;;;2.58;;
84054;SDS011;74141;51.504;7.122;2024-03-02T02:09:39;2.67;;;1.70;;
84054;SDS011;74141;51.504;7.122;2024-03-02T02:12:13;5.85;;;1.80;;
84054;SDS011;74141;51.504;7.122;2024-03-02T02:14:40;2.35;;;1.63;;
84054;SDS011;74141;51.504;7.122;2024-03-02T02:17:15;2.30;;;1.58;;
84054;SDS011;74141;51.504;7.122;2024-03-02T02:19:40;3.28;;;2.03;;
84054;SDS011;74141;51.504;7.122;2024-03-02T02:22:12;2.75;;;1.92;;
84054;SDS011;74141;51.504;7.122;2024-03-02T02:24:40;2.63;;;1.73;;
84054;SDS011;74141;51.504;7.122;2024-03-02T02:27:12;3.22;;;1.80;;
84054;SDS011;74141;51.504;7.122;2024-03-02T02:29:40;3.53;;;1.70;;
84054;SDS011;74141;51.504;7.122;2024-03-02T02:32:11;2.42;;;1.70;;
84054;SDS011;74141;51.504;7.122;2024-03-02T02:34:37;3.47;;;1.80;;
84054;SDS011;74141;51.504;7.122;2024-03-02T02:37:11;2.90;;;1.90;;
84054;SDS011;74141;51.504;7.122;2024-03-02T02:39:36;4.00;;;2.00;;
84054;SDS011;74141;51.504;7.122;2024-03-02T02:42:14;6.55;;;1.50;;
84054;SDS011;74141;51.504;7.122;2024-03-02T02:44:39;2.80;;;1.80;;
84054;SDS011;74141;51.504;7.122;2024-03-02T02:47:14;4.20;;;2.07;;
84054;SDS011;74141;51.504;7.122;2024-03-02T02:49:39;6.18;;;1.60;;
84054;SDS011;74141;51.504;7.122;2024-03-02T02:52:13;3.13;;;1.70;;
84054;SDS011;74141;51.504;7.122;2024-03-02T02:54:38;3.67;;;1.65;;
84054;SDS011;74141;51.504;7.122;2024-03-02T02:57:13;3.73;;;1.80;;
84054;SDS011;74141;51.504;7.122;2024-03-02T02:59:38;3.72;;;1.83;;
84054;SDS011;74141;51.504;7.122;2024-03-02T03:02:04;5.27;;;1.57;;
84054;SDS011;74141;51.504;7.122;2024-03-02T03:04:29;2.00;;;1.37;;
84054;SDS011;74141;51.504;7.122;2024-03-02T03:06:54;4.55;;;1.85;;
84054;SDS011;74141;51.504;7.122;2024-03-02T03:09:19;2.87;;;1.83;;
84054;SDS011;74141;51.504;7.122;2024-03-02T03:11:45;2.00;;;1.75;;
84054;SDS011;74141;51.504;7.122;2024-03-02T03:14:11;2.33;;;1.87;;
84054;SDS011;74141;51.504;7.122;2024-03-02T03:16:36;2.42;;;1.17;;
84054;SDS011;74141;51.504;7.122;2024-03-02T03:19:01;2.57;;;1.63;;
84054;SDS011;74141;51.504;7.122;2024-03-02T03:21:26;1.83;;;1.50;;
84054;SDS011;74141;51.504;7.122;2024-03-02T03:23:52;3.47;;;1.97;;
84054;SDS011;74141;51.504;7.122;2024-03-02T03:26:17;5.13;;;2.00;;
84054;SDS011;74141;51.504;7.122;2024-03-02T03:28:42;3.60;;;1.90;;
84054;SDS011;74141;51.504;7.122;2024-03-02T03:31:08;2.20;;;1.52;;
84054;SDS011;74141;51.504;7.122;2024-03-02T03:33:33;5.03;;;1.80;;
84054;SDS011;74141;51.504;7.122;2024-03-02T03:35:59;3.58;;;1.95;;
84054;SDS011;74141;51.504;7.122;2024-03-02T03:38:24;3.15;;;1.98;;
84054;SDS011;74141;51.504;7.122;2024-03-02T03:40:50;3.85;;;2.00;;
84054;SDS011;74141;51.504;7.122;2024-03-02T03:43:15;4.43;;;1.80;;
84054;SDS011;74141;51.504;7.122;2024-03-02T03:45:40;3.63;;;1.90;;
84054;SDS011;74141;51.504;7.122;2024-03-02T03:48:06;4.70;;;1.92;;
84054;SDS011;74141;51.504;7.122;2024-03-02T03:50:32;4.07;;;1.92;;
84054;SDS011;74141;51.504;7.122;2024-03-02T03:52:57;3.23;;;1.50;;
84054;SDS011;74141;51.504;7.122;2024-03-02T03:55:22;2.67;;;1.87;;
84054;SDS011;74141;51.504;7.122;2024-03-02T03:57:47;2.77;;;1.90;;
84054;SDS011;74141;51.504;7.122;2024-03-02T04:00:13;3.43;;;2.00;;
84054;SDS011;74141;51.504;7.122;2024-03-02T04:02:38;5.93;;;1.98;;
84054;SDS011;74141;51.504;7.122;2024-03-02T04:05:04;2.60;;;1.90;;
84054;SDS011;74141;51.504;7.122;2024-03-02T04:07:33;3.28;;;1.70;;
84054;SDS011;74141;51.504;7.122;2024-03-02T04:10:04;3.00;;;1.80;;
84054;SDS011;74141;51.504;7.122;2024-03-02T04:12:29;3.88;;;1.80;;
84054;SDS011;74141;51.504;7.122;2024-03-02T04:14:55;2.60;;;1.70;;
84054;SDS011;74141;51.504;7.122;2024-03-02T04:17:20;2.57;;;1.53;;
84054;SDS011;74141;51.504;7.122;2024-03-02T04:19:45;2.63;;;1.80;;
84054;SDS011;74141;51.504;7.122;2024-03-02T04:22:10;5.60;;;1.90;;
84054;SDS011;74141;51.504;7.122;2024-03-02T04:24:36;4.07;;;1.70;;
84054;SDS011;74141;51.504;7.122;2024-03-02T04:27:01;2.43;;;1.90;;
84054;SDS011;74141;51.504;7.122;2024-03-02T04:29:27;2.90;;;2.00;;
84054;SDS011;74141;51.504;7.122;2024-03-02T04:31:52;3.33;;;2.13;;
84054;SDS011;74141;51.504;7.122;2024-03-02T04:34:17;3.43;;;1.73;;
84054;SDS011;74141;51.504;7.122;2024-03-02T04:36:43;2.83;;;1.80;;
84054;SDS011;74141;51.504;7.122;2024-03-02T04:39:08;2.23;;;1.70;;
84054;SDS011;74141;51.504;7.122;2024-03-02T04:41:34;2.75;;;1.85;;
84054;SDS011;74141;51.504;7.122;2024-03-02T04:43:59;4.73;;;1.97;;
84054;SDS011;74141;51.504;7.122;2024-03-02T04:46:25;3.95;;;1.63;;
84054;SDS011;74141;51.504;7.122;2024-03-02T04:48:50;4.30;;;1.90;;
84054;SDS011;74141;51.504;7.122;2024-03-02T04:51:20;3.45;;;1.63;;
84054;SDS011;74141;51.504;7.122;2024-03-02T04:53:46;3.45;;;1.88;;
84054;SDS011;74141;51.504;7.122;2024-03-02T04:56:11;2.60;;;1.85;;
84054;SDS011;74141;51.504;7.122;2024-03-02T04:59:05;2.97;;;1.70;;
84054;SDS011;74141;51.504;7.122;2024-03-02T05:01:31;2.85;;;1.90;;
84054;SDS011;74141;51.504;7.122;2024-03-02T05:03:56;1.80;;;1.50;;
84054;SDS011;74141;51.504;7.122;2024-03-02T05:06:22;4.97;;;1.80;;
84054;SDS011;74141;51.504;7.122;2024-03-02T05:08:47;4.00;;;1.98;;
84054;SDS011;74141;51.504;7.122;2024-03-02T05:11:13;3.20;;;1.90;;
84054;SDS011;74141;51.504;7.122;2024-03-02T05:13:57;3.97;;;1.98;;
84054;SDS011;74141;51.504;7.122;2024-03-02T05:16:22;2.57;;;2.23;;
84054;SDS011;74141;51.504;7.122;2024-03-02T05:18:47;3.40;;;2.20;;
84054;SDS011;74141;51.504;7.122;2024-03-02T05:21:12;3.53;;;1.90;;
84054;SDS011;74141;51.504;7.122;2024-03-02T05:23:38;3.20;;;1.77;;
84054;SDS011;74141;51.504;7.122;2024-03-02T05:26:03;2.90;;;1.95;;
84054;SDS011;74141;51.504;7.122;2024-03-02T05:28:29;2.85;;;1.77;;
84054;SDS011;74141;51.504;7.122;2024-03-02T05:30:54;3.17;;;2.30;;
84054;SDS011;74141;51.504;7.122;2024-03-02T05:33:19;3.07;;;1.83;;
84054;SDS011;74141;51.504;7.122;2024-03-02T05:35:47;3.60;;;2.08;;
84054;SDS011;74141;51.504;7.122;2024-03-02T05:38:14;1.67;;;1.58;;
84054;SDS011;74141;51.504;7.122;2024-03-02T05:40:40;2.80;;;1.70;;
84054;SDS011;74141;51.504;7.122;2024-03-02T05:43:05;5.70;;;2.10;;
84054;SDS011;74141;51.504;7.122;2024-03-02T05:45:30;3.38;;;1.98;;
84054;SDS011;74141;51.504;7.122;2024-03-02T05:47:55;5.63;;;2.00;;
84054;SDS011;74141;51.504;7.122;2024-03-02T05:50:21;3.30;;;2.00;;
84054;SDS011;74141;51.504;7.122;2024-03-02T05:52:46;2.50;;;1.90;;
84054;SDS011;74141;51.504;7.122;2024-03-02T05:55:12;2.50;;;1.83;;
84054;SDS011;74141;51.504;7.122;2024-03-02T05:57:37;3.55;;;2.20;;
84054;SDS011;74141;51.504;7.122;2024-03-02T06:00:08;3.83;;;2.08;;
84054;SDS011;74141;51.504;7.122;2024-03-02T06:02:34;4.60;;;2.13;;
84054;SDS011;74141;51.504;7.122;2024-03-02T06:05:02;4.03;;;2.22;;
84054;SDS011;74141;51.504;7.122;2024-03-02T06:07:29;3.33;;;1.90;;
84054;SDS011;74141;51.504;7.122;2024-03-02T06:09:54;3.53;;;2.23;;
84054;SDS011;74141;51.504;7.122;2024-03-02T06:12:19;3.10;;;1.97;;
84054;SDS011;74141;51.504;7.122;2024-03-02T06:14:45;4.95;;;2.42;;
84054;SDS011;74141;51.504;7.122;2024-03-02T06:17:10;3.83;;;2.53;;
84054;SDS011;74141;51.504;7.122;2024-03-02T06:19:35;2.93;;;2.13;;
84054;SDS011;74141;51.504;7.122;2024-03-02T06:22:01;6.22;;;2.80;;
84054;SDS011;74141;51.504;7.122;2024-03-02T06:24:26;3.93;;;2.43;;
84054;SDS011;74141;51.504;7.122;2024-03-02T06:26:51;4.00;;;2.37;;
84054;SDS011;74141;51.504;7.122;2024-03-02T06:29:17;2.95;;;1.98;;
84054;SDS011;74141;51.504;7.122;2024-03-02T06:31:42;4.22;;;2.30;;
84054;SDS011;74141;51.504;7.122;2024-03-02T06:34:07;3.87;;;2.17;;
84054;SDS011;74141;51.504;7.122;2024-03-02T06:36:33;3.10;;;2.15;;
84054;SDS011;74141;51.504;7.122;2024-03-02T06:38:59;4.22;;;2.10;;
84054;SDS011;74141;51.504;7.122;2024-03-02T06:41:24;4.77;;;2.70;;
84054;SDS011;74141;51.504;7.122;2024-03-02T06:43:49;4.93;;;3.00;;
84054;SDS011;74141;51.504;7.122;2024-03-02T06:46:14;3.80;;;2.33;;
84054;SDS011;74141;51.504;7.122;2024-03-02T06:48:40;4.60;;;2.40;;
84054;SDS011;74141;51.504;7.122;2024-03-02T06:51:05;4.20;;;2.67;;
84054;SDS011;74141;51.504;7.122;2024-03-02T06:53:30;4.82;;;2.40;;
84054;SDS011;74141;51.504;7.122;2024-03-02T06:55:58;4.57;;;2.25;;
84054;SDS011;74141;51.504;7.122;2024-03-02T06:58:23;5.23;;;2.80;;
84054;SDS011;74141;51.504;7.122;2024-03-02T07:00:49;4.33;;;2.87;;
84054;SDS011;74141;51.504;7.122;2024-03-02T07:03:14;4.20;;;2.50;;
84054;SDS011;74141;51.504;7.122;2024-03-02T07:05:40;4.50;;;2.65;;
84054;SDS011;74141;51.504;7.122;2024-03-02T07:08:06;4.65;;;2.67;;
84054;SDS011;74141;51.504;7.122;2024-03-02T07:10:31;3.65;;;2.72;;
84054;SDS011;74141;51.504;7.122;2024-03-02T07:12:57;4.78;;;2.92;;
84054;SDS011;74141;51.504;7.122;2024-03-02T07:15:22;5.83;;;3.20;;
84054;SDS011;74141;51.504;7.122;2024-03-02T07:17:53;4.13;;;2.88;;
84054;SDS011;74141;51.504;7.122;2024-03-02T07:20:18;4.28;;;2.75;;
84054;SDS011;74141;51.504;7.122;2024-03-02T07:22:44;4.47;;;2.63;;
84054;SDS011;74141;51.504;7.122;2024-03-02T07:25:09;4.53;;;3.10;;
84054;SDS011;74141;51.504;7.122;2024-03-02T07:27:34;7.27;;;3.03;;
84054;SDS011;74141;51.504;7.122;2024-03-02T07:30:01;3.92;;;2.72;;
84054;SDS011;74141;51.504;7.122;2024-03-02T07:32:27;3.95;;;2.58;;
84054;SDS011;74141;51.504;7.122;2024-03-02T07:34:52;4.60;;;2.77;;
84054;SDS011;74141;51.504;7.122;2024-03-02T07:37:18;5.50;;;3.00;;
84054;SDS011;74141;51.504;7.122;2024-03-02T07:39:43;3.85;;;2.67;;
84054;SDS011;74141;51.504;7.122;2024-03-02T07:42:09;5.30;;;3.03;;
84054;SDS011;74141;51.504;7.122;2024-03-02T07:44:34;5.22;;;2.55;;
84054;SDS011;74141;51.504;7.122;2024-03-02T07:47:00;5.53;;;3.27;;
84054;SDS011;74141;51.504;7.122;2024-03-02T07:49:25;4.22;;;2.42;;
84054;SDS011;74141;51.504;7.122;2024-03-02T07:51:51;4.82;;;2.53;;
84054;SDS011;74141;51.504;7.122;2024-03-02T07:54:16;4.70;;;2.67;;
84054;SDS011;74141;51.504;7.122;2024-03-02T07:56:41;3.90;;;2.80;;
84054;SDS011;74141;51.504;7.122;2024-03-02T07:59:06;5.85;;;3.00;;
84054;SDS011;74141;51.504;7.122;2024-03-02T08:01:32;4.75;;;2.38;;
84054;SDS011;74141;51.504;7.122;2024-03-02T08:04:01;4.72;;;2.92;;
84054;SDS011;74141;51.504;7.122;2024-03-02T08:06:28;4.88;;;2.80;;
84054;SDS011;74141;51.504;7.122;2024-03-02T08:08:55;4.05;;;2.95;;
84054;SDS011;74141;51.504;7.122;2024-03-02T08:11:24;4.32;;;2.95;;
84054;SDS011;74141;51.504;7.122;2024-03-02T08:13:50;6.70;;;2.78;;
84054;SDS011;74141;51.504;7.122;2024-03-02T08:16:15;6.55;;;2.55;;
84054;SDS011;74141;51.504;7.122;2024-03-02T08:18:43;5.05;;;2.47;;
84054;SDS011;74141;51.504;7.122;2024-03-02T08:21:09;5.15;;;2.35;;
84054;SDS011;74141;51.504;7.122;2024-03-02T08:23:35;6.05;;;2.78;;
84054;SDS011;74141;51.504;7.122;2024-03-02T08:26:00;7.00;;;3.10;;
84054;SDS011;74141;51.504;7.122;2024-03-02T08:28:26;3.67;;;2.78;;
84054;SDS011;74141;51.504;7.122;2024-03-02T08:30:51;4.33;;;2.80;;
84054;SDS011;74141;51.504;7.122;2024-03-02T08:33:16;6.50;;;2.40;;
84054;SDS011;74141;51.504;7.122;2024-03-02T08:35:41;3.55;;;2.53;;
84054;SDS011;74141;51.504;7.122;2024-03-02T08:38:07;8.50;;;2.70;;
84054;SDS011;74141;51.504;7.122;2024-03-02T08:40:32;2.90;;;2.20;;
84054;SDS011;74141;51.504;7.122;2024-03-02T08:42:57;3.00;;;2.20;;
84054;SDS011;74141;51.504;7.122;2024-03-02T08:45:23;3.10;;;2.20;;
84054;SDS011;74141;51.504;7.122;2024-03-02T08:47:48;5.43;;;2.70;;
84054;SDS011;74141;51.504;7.122;2024-03-02T08:50:13;4.20;;;2.40;;
84054;SDS011;74141;51.504;7.122;2024-03-02T08:52:38;3.10;;;2.30;;
84054;SDS011;74141;51.504;7.122;2024-03-02T08:55:04;4.47;;;2.20;;
84054;SDS011;74141;51.504;7.122;2024-03-02T08:57:30;5.85;;;2.45;;
84054;SDS011;74141;51.504;7.122;2024-03-02T08:59:56;3.85;;;2.22;;
84054;SDS011;74141;51.504;7.122;2024-03-02T09:02:22;2.97;;;2.13;;
84054;SDS011;74141;51.504;7.122;2024-03-02T09:04:47;4.95;;;2.20;;
84054;SDS011;74141;51.504;7.122;2024-03-02T09:07:12;2.80;;;1.95;;
84054;SDS011;74141;51.504;7.122;2024-03-02T09:09:37;3.17;;;2.10;;
84054;SDS011;74141;51.504;7.122;2024-03-02T09:12:04;3.45;;;1.95;;
84054;SDS011;74141;51.504;7.122;2024-03-02T09:14:30;4.05;;;1.88;;
84054;SDS011;74141;51.504;7.122;2024-03-02T09:16:55;3.33;;;1.83;;
84054;SDS011;74141;51.504;7.122;2024-03-02T09:19:21;3.67;;;2.00;;
84054;SDS011;74141;51.504;7.122;2024-03-02T09:21:46;4.70;;;2.10;;
84054;SDS011;74141;51.504;7.122;2024-03-02T09:24:11;3.30;;;1.90;;
84054;SDS011;74141;51.504;7.122;2024-03-02T09:26:37;3.42;;;1.83;;
84054;SDS011;74141;51.504;7.122;2024-03-02T09:29:02;4.03;;;2.10;;
84054;SDS011;74141;51.504;7.122;2024-03-02T09:31:28;6.27;;;2.30;;
84054;SDS011;74141;51.504;7.122;2024-03-02T09:33:53;2.87;;;2.10;;
84054;SDS011;74141;51.504;7.122;2024-03-02T09:36:21;3.33;;;1.98;;
84054;SDS011;74141;51.504;7.122;2024-03-02T09:38:47;3.15;;;1.92;;
84054;SDS011;74141;51.504;7.122;2024-03-02T09:41:14;3.60;;;1.83;;
84054;SDS011;74141;51.504;7.122;2024-03-02T09:43:40;4.30;;;1.98;;
84054;SDS011;74141;51.504;7.122;2024-03-02T09:46:05;3.22;;;1.92;;
84054;SDS011;74141;51.504;7.122;2024-03-02T09:48:33;4.22;;;1.73;;
84054;SDS011;74141;51.504;7.122;2024-03-02T09:50:59;2.20;;;1.80;;
84054;SDS011;74141;51.504;7.122;2024-03-02T09:53:25;5.18;;;1.83;;
84054;SDS011;74141;51.504;7.122;2024-03-02T09:55:56;2.55;;;1.95;;
84054;SDS011;74141;51.504;7.122;2024-03-02T09:58:21;4.87;;;1.90;;
84054;SDS011;74141;51.504;7.122;2024-03-02T10:00:46;3.13;;;2.00;;
84054;SDS011;74141;51.504;7.122;2024-03-02T10:03:12;3.30;;;1.70;;
84054;SDS011;74141;51.504;7.122;2024-03-02T10:05:38;3.25;;;1.60;;
84054;SDS011;74141;51.504;7.122;2024-03-02T10:08:03;4.80;;;1.93;;
84054;SDS011;74141;51.504;7.122;2024-03-02T10:10:35;1.63;;;1.42;;
84054;SDS011;74141;51.504;7.122;2024-03-02T10:13:05;2.20;;;1.50;;
84054;SDS011;74141;51.504;7.122;2024-03-02T10:15:34;2.92;;;1.55;;
84054;SDS011;74141;51.504;7.122;2024-03-02T10:18:02;4.32;;;1.80;;
84054;SDS011;74141;51.504;7.122;2024-03-02T10:20:27;2.88;;;1.40;;
84054;SDS011;74141;51.504;7.122;2024-03-02T10:22:54;4.63;;;1.90;;
84054;SDS011;74141;51.504;7.122;2024-03-02T10:25:29;4.30;;;1.80;;
84054;SDS011;74141;51.504;7.122;2024-03-02T10:27:58;2.88;;;1.60;;
84054;SDS011;74141;51.504;7.122;2024-03-02T10:30:30;4.00;;;1.75;;
84054;SDS011;74141;51.504;7.122;2024-03-02T10:32:55;2.33;;;1.50;;
84054;SDS011;74141;51.504;7.122;2024-03-02T10:35:23;2.30;;;1.77;;
84054;SDS011;74141;51.504;7.122;2024-03-02T10:37:52;3.33;;;2.13;;
84054;SDS011;74141;51.504;7.122;2024-03-02T10:40:18;3.25;;;1.90;;
84054;SDS011;74141;51.504;7.122;2024-03-02T10:42:43;2.58;;;1.80;;
84054;SDS011;74141;51.504;7.122;2024-03-02T10:45:10;4.65;;;1.92;;
84054;SDS011;74141;51.504;7.122;2024-03-02T10:47:37;3.28;;;1.77;;
84054;SDS011;74141;51.504;7.122;2024-03-02T10:50:04;5.65;;;1.95;;
84054;SDS011;74141;51.504;7.122;2024-03-02T10:52:36;2.65;;;1.80;;
84054;SDS011;74141;51.504;7.122;2024-03-02T10:55:05;4.75;;;2.30;;
84054;SDS011;74141;51.504;7.122;2024-03-02T10:57:41;4.85;;;1.90;;
84054;SDS011;74141;51.504;7.122;2024-03-02T11:00:15;2.80;;;2.00;;
84054;SDS011;74141;51.504;7.122;2024-03-02T11:02:46;2.40;;;1.63;;
84054;SDS011;74141;51.504;7.122;2024-03-02T11:07:56;4.05;;;1.80;;
84054;SDS011;74141;51.504;7.122;2024-03-02T11:10:26;2.30;;;1.60;;
84054;SDS011;74141;51.504;7.122;2024-03-02T11:12:56;5.55;;;1.70;;
84054;SDS011;74141;51.504;7.122;2024-03-02T11:15:27;3.95;;;1.73;;
84054;SDS011;74141;51.504;7.122;2024-03-02T11:17:52;2.95;;;1.60;;
84054;SDS011;74141;51.504;7.122;2024-03-02T11:20:19;4.43;;;2.25;;
84054;SDS011;74141;51.504;7.122;2024-03-02T11:22:45;3.85;;;1.88;;
84054;SDS011;74141;51.504;7.122;2024-03-02T11:25:26;3.00;;;1.60;;
84054;SDS011;74141;51.504;7.122;2024-03-02T11:32:58;3.00;;;1.50;;
84054;SDS011;74141;51.504;7.122;2024-03-02T11:35:25;2.17;;;1.40;;
84054;SDS011;74141;51.504;7.122;2024-03-02T11:37:51;4.03;;;1.60;;
84054;SDS011;74141;51.504;7.122;2024-03-02T11:40:21;3.95;;;1.60;;
84054;SDS011;74141;51.504;7.122;2024-03-02T11:42:47;4.75;;;1.50;;
84054;SDS011;74141;51.504;7.122;2024-03-02T11:45:16;2.33;;;1.50;;
84054;SDS011;74141;51.504;7.122;2024-03-02T11:47:42;1.73;;;1.30;;
84054;SDS011;74141;51.504;7.122;2024-03-02T11:50:15;2.42;;;1.60;;
84054;SDS011;74141;51.504;7.122;2024-03-02T11:52:40;4.13;;;1.73;;
84054;SDS011;74141;51.504;7.122;2024-03-02T11:55:07;3.13;;;1.50;;
84054;SDS011;74141;51.504;7.122;2024-03-02T11:57:34;2.60;;;1.40;;
84054;SDS011;74141;51.504;7.122;2024-03-02T12:00:00;2.70;;;1.60;;
84054;SDS011;74141;51.504;7.122;2024-03-02T12:02:28;2.15;;;1.60;;
84054;SDS011;74141;51.504;7.122;2024-03-02T12:04:54;3.42;;;1.30;;
84054;SDS011;74141;51.504;7.122;2024-03-02T12:07:24;2.60;;;1.30;;
84054;SDS011;74141;51.504;7.122;2024-03-02T12:09:59;3.13;;;1.75;;
84054;SDS011;74141;51.504;7.122;2024-03-02T12:12:25;4.03;;;1.80;;
84054;SDS011;74141;51.504;7.122;2024-03-02T12:14:52;2.85;;;1.50;;
84054;SDS011;74141;51.504;7.122;2024-03-02T12:17:20;2.22;;;1.48;;
84054;SDS011;74141;51.504;7.122;2024-03-02T12:19:45;2.40;;;1.57;;
84054;SDS011;74141;51.504;7.122;2024-03-02T12:22:11;2.92;;;1.45;;
84054;SDS011;74141;51.504;7.122;2024-03-02T12:24:36;5.28;;;1.60;;
84054;SDS011;74141;51.504;7.122;2024-03-02T12:27:02;4.65;;;1.80;;
84054;SDS011;74141;51.504;7.122;2024-03-02T12:29:29;3.42;;;1.90;;
84054;SDS011;74141;51.504;7.122;2024-03-02T12:31:54;2.20;;;1.52;;
84054;SDS011;74141;51.504;7.122;2024-03-02T12:34:21;5.15;;;1.90;;
84054;SDS011;74141;51.504;7.122;2024-03-02T12:36:47;2.35;;;1.70;;
84054;SDS011;74141;51.504;7.122;2024-03-02T12:39:17;2.08;;;1.35;;
84054;SDS011;74141;51.504;7.122;2024-03-02T12:41:43;2.72;;;1.60;;
84054;SDS011;74141;51.504;7.122;2024-03-02T12:44:08;2.92;;;1.70;;
84054;SDS011;74141;51.504;7.122;2024-03-02T12:46:34;3.17;;;1.80;;
84054;SDS011;74141;51.504;7.122;2024-03-02T12:49:07;2.58;;;1.52;;
84054;SDS011;74141;51.504;7.122;2024-03-02T12:51:38;3.00;;;1.70;;
84054;SDS011;74141;51.504;7.122;2024-03-02T12:54:06;5.30;;;1.98;;
84054;SDS011;74141;51.504;7.122;2024-03-02T12:56:37;2.95;;;1.60;;
84054;SDS011;74141;51.504;7.122;2024-03-02T12:59:03;1.95;;;1.40;;
84054;SDS011;74141;51.504;7.122;2024-03-02T13:01:29;1.95;;;1.35;;
84054;SDS011;74141;51.504;7.122;2024-03-02T13:03:56;3.70;;;1.52;;
84054;SDS011;74141;51.504;7.122;2024-03-02T13:06:22;2.10;;;1.60;;
84054;SDS011;74141;51.504;7.122;2024-03-02T13:08:48;1.67;;;1.17;;
84054;SDS011;74141;51.504;7.122;2024-03-02T13:11:14;1.33;;;1.20;;
84054;SDS011;74141;51.504;7.122;2024-03-02T13:13:41;3.03;;;1.63;;
84054;SDS011;74141;51.504;7.122;2024-03-02T13:16:10;2.72;;;1.33;;
84054;SDS011;74141;51.504;7.122;2024-03-02T13:18:36;3.30;;;1.10;;
84054;SDS011;74141;51.504;7.122;2024-03-02T13:21:03;1.73;;;1.40;;
84054;SDS011;74141;51.504;7.122;2024-03-02T13:23:29;1.95;;;1.27;;
84054;SDS011;74141;51.504;7.122;2024-03-02T13:25:56;1.77;;;1.40;;
84054;SDS011;74141;51.504;7.122;2024-03-02T13:28:23;1.50;;;1.40;;
84054;SDS011;74141;51.504;7.122;2024-03-02T13:30:48;2.38;;;1.70;;
84054;SDS011;74141;51.504;7.122;2024-03-02T13:33:13;2.13;;;1.20;;
84054;SDS011;74141;51.504;7.122;2024-03-02T13:35:40;3.72;;;1.50;;
84054;SDS011;74141;51.504;7.122;2024-03-02T13:38:05;2.85;;;1.42;;
84054;SDS011;74141;51.504;7.122;2024-03-02T13:40:30;3.08;;;1.23;;
84054;SDS011;74141;51.504;7.122;2024-03-02T13:43:00;1.63;;;1.10;;
84054;SDS011;74141;51.504;7.122;2024-03-02T13:45:25;1.85;;;1.35;;
84054;SDS011;74141;51.504;7.122;2024-03-02T13:47:51;2.07;;;1.43;;
84054;SDS011;74141;51.504;7.122;2024-03-02T13:50:17;2.53;;;1.73;;
84054;SDS011;74141;51.504;7.122;2024-03-02T13:52:42;3.33;;;1.30;;
84054;SDS011;74141;51.504;7.122;2024-03-02T13:55:07;1.60;;;1.30;;
84054;SDS011;74141;51.504;7.122;2024-03-02T13:57:33;3.08;;;1.65;;
84054;SDS011;74141;51.504;7.122;2024-03-02T13:59:58;2.60;;;1.70;;
84054;SDS011;74141;51.504;7.122;2024-03-02T14:02:23;3.10;;;1.50;;
84054;SDS011;74141;51.504;7.122;2024-03-02T14:04:49;2.13;;;1.52;;
84054;SDS011;74141;51.504;7.122;2024-03-02T14:07:15;1.25;;;1.15;;
84054;SDS011;74141;51.504;7.122;2024-03-02T14:09:40;3.67;;;1.48;;
84054;SDS011;74141;51.504;7.122;2024-03-02T14:12:06;1.85;;;1.30;;
84054;SDS011;74141;51.504;7.122;2024-03-02T14:14:32;1.77;;;1.20;;
84054;SDS011;74141;51.504;7.122;2024-03-02T14:16:57;1.48;;;1.20;;
84054;SDS011;74141;51.504;7.122;2024-03-02T14:19:29;1.63;;;1.23;;
84054;SDS011;74141;51.504;7.122;2024-03-02T14:21:55;1.30;;;1.20;;
84054;SDS011;74141;51.504;7.122;2024-03-02T14:24:21;2.85;;;1.40;;
84054;SDS011;74141;51.504;7.122;2024-03-02T14:26:49;2.60;;;1.73;;
84054;SDS011;74141;51.504;7.122;2024-03-02T14:29:14;2.35;;;1.73;;
84054;SDS011;74141;51.504;7.122;2024-03-02T14:31:39;1.60;;;1.13;;
84054;SDS011;74141;51.504;7.122;2024-03-02T14:34:04;2.20;;;1.57;;
84054;SDS011;74141;51.504;7.122;2024-03-02T14:36:30;2.50;;;1.80;;
84054;SDS011;74141;51.504;7.122;2024-03-02T14:38:55;1.77;;;1.45;;
84054;SDS011;74141;51.504;7.122;2024-03-02T14:41:21;2.95;;;1.88;;
84054;SDS011;74141;51.504;7.122;2024-03-02T14:43:46;3.22;;;2.17;;
84054;SDS011;74141;51.504;7.122;2024-03-02T14:46:11;3.30;;;1.80;;
84054;SDS011;74141;51.504;7.122;2024-03-02T14:48:37;6.13;;;3.00;;
84054;SDS011;74141;51.504;7.122;2024-03-02T14:51:03;6.30;;;3.20;;
84054;SDS011;74141;51.504;7.122;2024-03-02T14:53:29;3.92;;;1.83;;
84054;SDS011;74141;51.504;7.122;2024-03-02T14:55:54;2.10;;;1.37;;